< < Back
Terminal Aerodrome Forecast


Current Version              Previous Versions:   1  2  3  4  5  6  7  8  9  

Terminal Aerodrome Forecast

761
FTUS42 KMLB 232300
TAFDAB
TAF
KDAB 232323Z 2400/2424 04007KT P6SM FEW050 FEW250
     FM240800 35004KT P6SM FEW250
     FM241400 04010KT P6SM FEW035 FEW250=

Latest METAR

105
SAUS80 KWBC 250000 RRC
MTRDAB
METAR KDAB 242353Z 32005KT 10SM SCT042 21/15 A2994 RMK AO2 SLP138
T02060150 10256 20206 55000


USA.gov is the U.S. government's official web portal to all federal, state and local government web resources and services.